createdAt,value
2023-07-01T00:01:20.336Z,20.90
2023-07-01T00:03:48.296Z,20.90
2023-07-01T00:06:16.413Z,20.90
2023-07-01T00:08:45.556Z,20.90
2023-07-01T00:11:13.644Z,20.80
2023-07-01T00:13:41.675Z,20.80
2023-07-01T00:16:09.624Z,20.80
2023-07-01T00:18:37.465Z,20.80
2023-07-01T00:21:05.285Z,20.70
2023-07-01T00:23:33.184Z,20.70
2023-07-01T00:26:02.736Z,20.70
2023-07-01T00:28:30.601Z,20.60
2023-07-01T00:30:58.532Z,20.60
2023-07-01T00:33:26.907Z,20.60
2023-07-01T00:35:54.960Z,20.50
2023-07-01T00:38:22.936Z,20.50
2023-07-01T00:40:50.797Z,20.50
2023-07-01T00:43:20.049Z,20.50
2023-07-01T00:45:47.915Z,20.40
2023-07-01T00:48:25.678Z,20.40
2023-07-01T00:50:54.520Z,20.30
2023-07-01T00:53:23.065Z,20.30
2023-07-01T00:55:51.007Z,20.30
2023-07-01T00:58:20.224Z,20.30
2023-07-01T01:00:48.395Z,20.20
2023-07-01T01:03:23.620Z,20.30
2023-07-01T01:05:59.946Z,20.20
2023-07-01T01:08:33.565Z,20.20
2023-07-01T01:11:03.842Z,20.20
2023-07-01T01:13:33.558Z,20.10
2023-07-01T01:16:03.316Z,20.10
2023-07-01T01:18:33.143Z,20.10
2023-07-01T01:21:01.276Z,20.10
2023-07-01T01:23:34.945Z,20.10
2023-07-01T01:26:07.718Z,20.00
2023-07-01T01:28:37.434Z,20.00
2023-07-01T01:31:06.236Z,20.00
2023-07-01T01:33:34.361Z,20.00
2023-07-01T01:36:09.042Z,20.00
2023-07-01T01:38:39.502Z,19.90
2023-07-01T01:41:11.415Z,19.90
2023-07-01T01:43:48.479Z,19.90
2023-07-01T01:46:17.415Z,19.80
2023-07-01T01:48:45.376Z,19.80
2023-07-01T01:51:17.143Z,19.80
2023-07-01T01:53:45.720Z,19.80
2023-07-01T01:56:14.493Z,19.70
2023-07-01T01:58:43.999Z,19.70
2023-07-01T02:01:11.861Z,19.70
2023-07-01T02:03:39.980Z,19.70
2023-07-01T02:06:08.087Z,19.60
2023-07-01T02:08:36.248Z,19.60
2023-07-01T02:11:04.534Z,19.60
2023-07-01T02:13:32.427Z,19.50
2023-07-01T02:16:01.640Z,19.50
2023-07-01T02:18:29.497Z,19.50
2023-07-01T02:20:57.460Z,19.50
2023-07-01T02:23:25.329Z,19.50
2023-07-01T02:25:53.234Z,19.40
2023-07-01T02:28:21.127Z,19.40
2023-07-01T02:30:49.188Z,19.40
2023-07-01T02:33:18.574Z,19.40
2023-07-01T02:35:46.363Z,19.40
2023-07-01T02:38:14.828Z,19.40
2023-07-01T02:40:42.717Z,19.30
2023-07-01T02:43:10.583Z,19.30
2023-07-01T02:45:38.538Z,19.30
2023-07-01T02:48:07.033Z,19.30
2023-07-01T02:50:36.255Z,19.30
2023-07-01T02:53:04.171Z,19.30
2023-07-01T02:55:32.074Z,19.20
2023-07-01T02:57:59.965Z,19.20
2023-07-01T03:00:27.841Z,19.20
2023-07-01T03:02:55.814Z,19.20
2023-07-01T03:05:24.780Z,19.10
2023-07-01T03:07:54.003Z,19.10
2023-07-01T03:10:21.925Z,19.10
2023-07-01T03:12:49.743Z,19.10
2023-07-01T03:15:17.594Z,19.10
2023-07-01T03:17:45.522Z,19.10
2023-07-01T03:20:24.021Z,19.00
2023-07-01T03:22:54.341Z,19.00
2023-07-01T03:25:22.382Z,19.00
2023-07-01T03:27:50.346Z,19.00
2023-07-01T03:30:19.716Z,18.90
2023-07-01T03:32:49.531Z,18.90
2023-07-01T03:35:18.025Z,18.90
2023-07-01T03:37:46.655Z,18.90
2023-07-01T03:40:15.923Z,18.90
2023-07-01T03:42:44.783Z,18.90
2023-07-01T03:45:14.824Z,18.80
2023-07-01T03:47:45.037Z,18.80
2023-07-01T03:50:13.429Z,18.80
2023-07-01T03:52:42.457Z,18.80
2023-07-01T03:55:12.406Z,18.80
2023-07-01T03:57:41.961Z,18.80
2023-07-01T04:00:16.809Z,18.80
2023-07-01T04:02:44.748Z,18.70
2023-07-01T04:05:12.817Z,18.70
2023-07-01T04:07:42.027Z,18.70
2023-07-01T04:10:11.874Z,18.70
2023-07-01T04:12:41.819Z,18.70
2023-07-01T04:15:12.256Z,18.70
2023-07-01T04:17:42.379Z,18.70
2023-07-01T04:20:12.040Z,18.70
2023-07-01T04:22:40.225Z,18.60
2023-07-01T04:25:08.983Z,18.60
2023-07-01T04:27:37.415Z,18.60
2023-07-01T04:30:09.422Z,18.60
2023-07-01T04:32:37.672Z,18.60
2023-07-01T04:35:13.597Z,18.60
2023-07-01T04:37:41.563Z,18.60
2023-07-01T04:40:10.371Z,18.60
2023-07-01T04:42:45.774Z,18.50
2023-07-01T04:45:15.181Z,18.50
2023-07-01T04:47:43.711Z,18.50
2023-07-01T04:50:11.984Z,18.50
2023-07-01T04:52:39.901Z,18.50
2023-07-01T04:55:08.841Z,18.50
2023-07-01T04:57:37.152Z,18.50
2023-07-01T05:00:06.887Z,18.50
2023-07-01T05:02:36.278Z,18.50
2023-07-01T05:05:04.655Z,18.50
2023-07-01T05:07:32.667Z,18.50
2023-07-01T05:10:00.554Z,18.50
2023-07-01T05:12:28.628Z,18.50
2023-07-01T05:14:57.342Z,18.50
2023-07-01T05:17:25.242Z,18.50
2023-07-01T05:19:54.502Z,18.50
2023-07-01T05:22:22.422Z,18.50
2023-07-01T05:24:50.282Z,18.40
2023-07-01T05:27:18.176Z,18.50
2023-07-01T05:29:45.993Z,18.40
2023-07-01T05:32:13.926Z,18.50
2023-07-01T05:34:41.766Z,18.50
2023-07-01T05:37:10.960Z,18.50
2023-07-01T05:39:39.119Z,18.50
2023-07-01T05:42:07.633Z,18.40
2023-07-01T05:44:35.901Z,18.50
2023-07-01T05:47:03.914Z,18.50
2023-07-01T05:49:31.981Z,18.50
2023-07-01T05:51:59.999Z,18.50
2023-07-01T05:54:29.223Z,18.50
2023-07-01T05:56:57.114Z,18.50
2023-07-01T05:59:25.011Z,18.50
2023-07-01T06:01:52.928Z,18.60
2023-07-01T06:04:20.905Z,18.60
2023-07-01T06:06:48.872Z,18.60
2023-07-01T06:09:18.111Z,18.60
2023-07-01T06:11:47.378Z,18.60
2023-07-01T06:14:15.260Z,18.60
2023-07-01T06:16:43.203Z,18.60
2023-07-01T06:19:11.074Z,18.70
2023-07-01T06:21:38.956Z,18.70
2023-07-01T06:24:07.618Z,18.70
2023-07-01T06:26:35.517Z,18.70
2023-07-01T06:29:04.794Z,18.80
2023-07-01T06:31:32.910Z,18.70
2023-07-01T06:34:00.870Z,18.70
2023-07-01T06:36:28.951Z,18.80
2023-07-01T06:38:56.854Z,18.80
2023-07-01T06:41:24.757Z,18.80
2023-07-01T06:43:53.523Z,18.80
2023-07-01T06:46:23.163Z,18.80
2023-07-01T06:48:51.058Z,18.80
2023-07-01T06:51:18.933Z,18.90
2023-07-01T06:53:46.945Z,18.90
2023-07-01T06:56:15.083Z,18.90
2023-07-01T06:58:42.966Z,18.90
2023-07-01T07:01:10.871Z,19.00
2023-07-01T07:03:41.767Z,19.00
2023-07-01T07:06:09.602Z,19.00
2023-07-01T07:08:38.068Z,19.10
2023-07-01T07:11:06.228Z,19.10
2023-07-01T07:13:34.085Z,19.10
2023-07-01T07:16:02.141Z,19.20
2023-07-01T07:18:30.246Z,19.20
2023-07-01T07:20:59.525Z,19.30
2023-07-01T07:23:27.426Z,19.30
2023-07-01T07:25:55.379Z,19.40
2023-07-01T07:28:23.285Z,19.50
2023-07-01T07:30:51.210Z,19.50
2023-07-01T07:33:19.120Z,19.60
2023-07-01T07:35:47.073Z,19.60
2023-07-01T07:38:16.631Z,19.60
2023-07-01T07:40:45.201Z,19.70
2023-07-01T07:43:13.398Z,19.70
2023-07-01T07:45:41.396Z,19.80
2023-07-01T07:48:09.543Z,19.80
2023-07-01T07:50:37.472Z,19.90
2023-07-01T07:53:06.916Z,19.90
2023-07-01T07:55:36.405Z,19.90
2023-07-01T07:58:04.671Z,19.90
2023-07-01T08:00:32.590Z,20.00
2023-07-01T08:03:00.505Z,20.00
2023-07-01T08:05:29.234Z,20.00
2023-07-01T08:07:57.288Z,20.00
2023-07-01T08:10:25.123Z,20.10
2023-07-01T08:12:54.312Z,20.10
2023-07-01T08:15:22.350Z,20.10
2023-07-01T08:17:50.283Z,20.20
2023-07-01T08:20:18.253Z,20.20
2023-07-01T08:22:46.174Z,20.30
2023-07-01T08:25:14.017Z,20.30
2023-07-01T08:27:41.854Z,20.40
2023-07-01T08:30:12.723Z,20.40
2023-07-01T08:32:41.229Z,20.50
2023-07-01T08:35:09.807Z,20.50
2023-07-01T08:37:37.670Z,20.60
2023-07-01T08:40:06.748Z,20.70
2023-07-01T08:42:41.340Z,20.60
2023-07-01T08:45:12.206Z,20.60
2023-07-01T08:47:41.573Z,20.70
2023-07-01T08:50:10.874Z,20.70
2023-07-01T08:52:41.845Z,20.80
2023-07-01T08:55:10.531Z,20.80
2023-07-01T08:57:39.605Z,20.90
2023-07-01T09:00:10.409Z,20.90
2023-07-01T09:02:41.014Z,21.00
2023-07-01T09:05:09.957Z,20.90
2023-07-01T09:07:37.935Z,21.00
2023-07-01T09:10:06.509Z,21.00
2023-07-01T09:12:34.700Z,21.10
2023-07-01T09:15:03.965Z,21.10
2023-07-01T09:17:33.969Z,21.30
2023-07-01T09:20:05.830Z,21.30
2023-07-01T09:22:34.895Z,21.40
2023-07-01T09:25:03.240Z,21.50
2023-07-01T09:27:43.195Z,21.60
2023-07-01T09:30:26.119Z,21.60
2023-07-01T09:32:54.313Z,21.60
2023-07-01T09:35:24.442Z,21.70
2023-07-01T09:38:03.719Z,21.70
2023-07-01T09:40:31.693Z,21.70
2023-07-01T09:42:59.533Z,21.70
2023-07-01T09:45:27.457Z,21.70
2023-07-01T09:47:55.599Z,21.80
2023-07-01T09:50:27.520Z,21.80
2023-07-01T09:52:56.349Z,21.90
2023-07-01T09:55:25.073Z,22.00
2023-07-01T09:57:54.643Z,22.00
2023-07-01T10:00:22.923Z,22.10
2023-07-01T10:02:51.093Z,22.20
2023-07-01T10:05:21.590Z,22.20
2023-07-01T10:07:50.807Z,22.10
2023-07-01T10:10:22.208Z,22.10
2023-07-01T10:12:52.791Z,22.20
2023-07-01T10:15:26.206Z,22.20
2023-07-01T10:17:56.788Z,22.30
2023-07-01T10:20:29.914Z,22.30
2023-07-01T10:22:59.976Z,22.40
2023-07-01T10:25:31.561Z,22.40
2023-07-01T10:28:07.708Z,22.50
2023-07-01T10:31:15.852Z,22.50
2023-07-01T10:33:54.230Z,22.50
2023-07-01T10:36:22.575Z,22.50
2023-07-01T10:38:51.908Z,22.50
2023-07-01T10:41:54.429Z,22.50
2023-07-01T10:44:26.914Z,22.60
2023-07-01T10:47:13.894Z,22.60
2023-07-01T10:50:06.474Z,22.70
2023-07-01T10:52:35.762Z,22.70
2023-07-01T10:55:41.282Z,22.70
2023-07-01T10:58:20.132Z,22.70
2023-07-01T11:00:48.893Z,22.70
2023-07-01T11:03:54.362Z,22.80
2023-07-01T11:06:22.972Z,22.80
2023-07-01T11:08:52.401Z,22.70
2023-07-01T11:11:23.581Z,22.70
2023-07-01T11:14:03.974Z,22.60
2023-07-01T11:16:34.070Z,22.60
2023-07-01T11:19:03.955Z,22.60
2023-07-01T11:21:33.036Z,22.70
2023-07-01T11:24:02.677Z,22.70
2023-07-01T11:26:34.219Z,22.60
2023-07-01T11:29:02.641Z,22.50
2023-07-01T11:31:35.022Z,22.50
2023-07-01T11:34:03.737Z,22.60
2023-07-01T11:36:37.036Z,22.60
2023-07-01T11:39:15.311Z,22.60
2023-07-01T11:41:46.003Z,22.70
2023-07-01T11:44:16.221Z,22.70
2023-07-01T11:46:45.967Z,22.70
2023-07-01T11:49:19.463Z,22.70
2023-07-01T11:51:49.424Z,22.70
2023-07-01T11:54:19.122Z,22.70
2023-07-01T11:56:51.714Z,22.80
2023-07-01T11:59:33.589Z,22.80
2023-07-01T12:02:02.298Z,22.80
2023-07-01T12:04:30.631Z,22.80
2023-07-01T12:07:12.366Z,22.70
2023-07-01T12:09:42.323Z,22.60
2023-07-01T12:12:12.544Z,22.60
2023-07-01T12:14:40.727Z,22.60
2023-07-01T12:17:09.534Z,22.60
2023-07-01T12:19:37.575Z,22.50
2023-07-01T12:22:06.378Z,22.60
2023-07-01T12:24:36.560Z,22.60
2023-07-01T12:27:05.934Z,22.50
2023-07-01T12:29:35.138Z,22.50
2023-07-01T12:32:03.307Z,22.60
2023-07-01T12:34:31.212Z,22.60
2023-07-01T12:37:00.114Z,22.60
2023-07-01T12:39:28.541Z,22.70
2023-07-01T12:41:56.795Z,22.70
2023-07-01T12:44:26.173Z,22.70
2023-07-01T12:46:55.391Z,22.80
2023-07-01T12:49:23.362Z,22.80
2023-07-01T12:51:51.262Z,22.80
2023-07-01T12:54:19.489Z,22.80
2023-07-01T12:56:48.030Z,22.80
2023-07-01T12:59:16.222Z,22.80
2023-07-01T13:01:46.796Z,22.90
2023-07-01T13:04:18.290Z,22.90
2023-07-01T13:06:46.894Z,22.80
2023-07-01T13:09:15.312Z,22.90
2023-07-01T13:11:43.177Z,22.90
2023-07-01T13:14:12.583Z,22.90
2023-07-01T13:16:42.111Z,22.90
2023-07-01T13:19:11.747Z,22.90
2023-07-01T13:21:42.324Z,22.90
2023-07-01T13:24:13.438Z,22.90
2023-07-01T13:26:42.738Z,23.00
2023-07-01T13:29:13.375Z,23.00
2023-07-01T13:31:42.115Z,23.10
2023-07-01T13:34:11.139Z,23.10
2023-07-01T13:36:41.677Z,23.00
2023-07-01T13:39:14.966Z,23.10
2023-07-01T13:41:42.935Z,23.10
2023-07-01T13:44:19.732Z,23.10
2023-07-01T13:46:48.300Z,23.10
2023-07-01T13:49:24.067Z,23.10
2023-07-01T13:51:54.296Z,23.10
2023-07-01T13:54:24.115Z,23.10
2023-07-01T13:56:52.566Z,23.10
2023-07-01T13:59:22.260Z,23.00
2023-07-01T14:01:59.544Z,23.00
2023-07-01T14:04:29.182Z,23.00
2023-07-01T14:06:58.734Z,23.00
2023-07-01T14:09:28.593Z,23.00
2023-07-01T14:11:57.204Z,23.10
2023-07-01T14:14:27.894Z,23.00
2023-07-01T14:16:57.959Z,23.10
2023-07-01T14:19:27.536Z,23.10
2023-07-01T14:21:56.618Z,23.10
2023-07-01T14:24:29.476Z,23.10
2023-07-01T14:26:59.546Z,23.10
2023-07-01T14:29:28.449Z,23.10
2023-07-01T14:31:57.763Z,23.20
2023-07-01T14:34:32.435Z,23.20
2023-07-01T14:37:00.534Z,23.20
2023-07-01T14:39:43.259Z,23.10
2023-07-01T14:42:11.753Z,23.20
2023-07-01T14:44:39.700Z,23.10
2023-07-01T14:47:07.647Z,23.20
2023-07-01T14:49:39.658Z,23.10
2023-07-01T14:52:08.982Z,23.10
2023-07-01T14:54:38.384Z,23.10
2023-07-01T14:57:07.142Z,23.10
2023-07-01T14:59:35.130Z,23.10
2023-07-01T15:02:03.039Z,23.00
2023-07-01T15:04:31.096Z,23.00
2023-07-01T15:06:58.990Z,23.00
2023-07-01T15:09:26.865Z,23.00
2023-07-01T15:11:56.080Z,23.00
2023-07-01T15:14:23.916Z,23.00
2023-07-01T15:16:51.782Z,23.00
2023-07-01T15:19:19.667Z,23.00
2023-07-01T15:21:47.573Z,22.90
2023-07-01T15:24:15.439Z,22.90
2023-07-01T15:26:43.339Z,22.90
2023-07-01T15:29:12.690Z,22.80
2023-07-01T15:31:40.752Z,22.80
2023-07-01T15:34:09.025Z,22.70
2023-07-01T15:36:37.324Z,22.70
2023-07-01T15:39:05.351Z,22.70
2023-07-01T15:41:46.263Z,22.60
2023-07-01T15:44:17.036Z,22.70
2023-07-01T15:46:45.142Z,22.70
2023-07-01T15:49:13.466Z,22.70
2023-07-01T15:51:41.435Z,22.70
2023-07-01T15:54:11.568Z,22.70
2023-07-01T15:56:39.522Z,22.70
2023-07-01T15:59:07.955Z,22.70
2023-07-01T16:01:37.566Z,22.70
2023-07-01T16:04:06.470Z,22.70
2023-07-01T16:06:35.113Z,22.70
2023-07-01T16:09:06.346Z,22.70
2023-07-01T16:11:35.148Z,22.60
2023-07-01T16:14:04.331Z,22.70
2023-07-01T16:16:44.267Z,22.70
2023-07-01T16:19:18.683Z,22.60
2023-07-01T16:21:47.469Z,22.70
2023-07-01T16:24:49.621Z,22.70
2023-07-01T16:27:19.084Z,22.60
2023-07-01T16:29:47.233Z,22.60
2023-07-01T16:32:20.461Z,22.60
2023-07-01T16:34:50.082Z,22.50
2023-07-01T16:37:18.187Z,22.50
2023-07-01T16:39:51.721Z,22.50
2023-07-01T16:42:21.572Z,22.50
2023-07-01T16:44:52.992Z,22.50
2023-07-01T16:47:22.286Z,22.50
2023-07-01T16:49:52.484Z,22.50
2023-07-01T16:52:28.058Z,22.40
2023-07-01T16:54:56.221Z,22.50
2023-07-01T16:57:24.456Z,22.40
2023-07-01T16:59:52.467Z,22.40
2023-07-01T17:03:11.579Z,22.40
2023-07-01T17:05:40.954Z,22.40
2023-07-01T17:08:21.608Z,22.40
2023-07-01T17:10:50.498Z,22.40
2023-07-01T17:13:37.035Z,22.30
2023-07-01T17:16:07.278Z,22.30
2023-07-01T17:18:37.621Z,22.20
2023-07-01T17:21:06.882Z,22.20
2023-07-01T17:23:34.745Z,22.20
2023-07-01T17:26:02.600Z,22.20
2023-07-01T17:28:31.014Z,22.20
2023-07-01T17:30:59.040Z,22.20
2023-07-01T17:33:26.940Z,22.30
2023-07-01T17:35:54.859Z,22.20
2023-07-01T17:38:24.222Z,22.20
2023-07-01T17:40:52.086Z,22.20
2023-07-01T17:43:19.974Z,22.20
2023-07-01T17:45:48.082Z,22.10
2023-07-01T17:48:16.104Z,22.20
2023-07-01T17:50:43.938Z,22.10
2023-07-01T17:53:12.252Z,22.10
2023-07-01T17:55:41.509Z,22.10
2023-07-01T17:58:09.435Z,22.10
2023-07-01T18:00:37.606Z,22.10
2023-07-01T18:03:06.234Z,22.20
2023-07-01T18:05:34.593Z,22.10
2023-07-01T18:08:02.972Z,22.10
2023-07-01T18:10:30.855Z,22.10
2023-07-01T18:13:00.126Z,22.10
2023-07-01T18:15:28.006Z,22.10
2023-07-01T18:17:55.857Z,22.10
2023-07-01T18:20:23.882Z,22.10
2023-07-01T18:22:51.739Z,22.10
2023-07-01T18:25:19.761Z,22.10
2023-07-01T18:27:47.593Z,22.10
2023-07-01T18:30:17.182Z,22.10
2023-07-01T18:32:45.979Z,22.10
2023-07-01T18:35:15.933Z,22.10
2023-07-01T18:37:47.703Z,22.10
2023-07-01T18:40:16.637Z,22.10
2023-07-01T18:42:44.895Z,22.00
2023-07-01T18:45:13.571Z,22.00
2023-07-01T18:47:43.531Z,22.00
2023-07-01T18:50:12.709Z,22.00
2023-07-01T18:52:40.558Z,22.00
2023-07-01T18:55:09.229Z,22.00
2023-07-01T18:57:37.099Z,22.00
2023-07-01T19:00:06.632Z,22.00
2023-07-01T19:02:34.666Z,22.00
2023-07-01T19:05:05.518Z,22.00
2023-07-01T19:07:33.485Z,22.00
2023-07-01T19:10:01.441Z,21.90
2023-07-01T19:12:29.991Z,21.90
2023-07-01T19:14:57.933Z,21.80
2023-07-01T19:17:25.862Z,21.80
2023-07-01T19:19:54.469Z,21.80
2023-07-01T19:22:28.890Z,21.80
2023-07-01T19:24:57.033Z,21.80
2023-07-01T19:27:24.863Z,21.70
2023-07-01T19:30:07.800Z,21.70
2023-07-01T19:32:40.391Z,21.70
2023-07-01T19:35:09.159Z,21.70
2023-07-01T19:37:38.378Z,21.70
2023-07-01T19:40:07.295Z,21.60
2023-07-01T19:42:35.159Z,21.60
2023-07-01T19:45:03.014Z,21.70
2023-07-01T19:47:31.359Z,21.60
2023-07-01T19:49:59.234Z,21.60
2023-07-01T19:52:27.208Z,21.60
2023-07-01T19:54:56.424Z,21.60
2023-07-01T19:57:24.411Z,21.60
2023-07-01T19:59:52.315Z,21.60
2023-07-01T20:02:20.154Z,21.60
2023-07-01T20:04:48.061Z,21.60
2023-07-01T20:07:16.074Z,21.50
2023-07-01T20:09:45.061Z,21.50
2023-07-01T20:12:14.776Z,21.50
2023-07-01T20:14:44.171Z,21.50
2023-07-01T20:17:12.197Z,21.50
2023-07-01T20:19:40.106Z,21.50
2023-07-01T20:22:08.356Z,21.50
2023-07-01T20:24:36.215Z,21.50
2023-07-01T20:27:04.354Z,21.50
2023-07-01T20:29:34.918Z,21.40
2023-07-01T20:32:03.024Z,21.40
2023-07-01T20:34:31.050Z,21.40
2023-07-01T20:36:58.928Z,21.40
2023-07-01T20:39:26.818Z,21.40
2023-07-01T20:42:06.786Z,21.40
2023-07-01T20:44:37.698Z,21.40
2023-07-01T20:47:07.569Z,21.30
2023-07-01T20:49:36.351Z,21.30
2023-07-01T20:52:04.959Z,21.30
2023-07-01T20:54:32.873Z,21.30
2023-07-01T20:57:00.794Z,21.30
2023-07-01T20:59:31.843Z,21.20
2023-07-01T21:02:01.123Z,21.20
2023-07-01T21:04:29.904Z,21.20
2023-07-01T21:06:57.844Z,21.20
2023-07-01T21:09:25.737Z,21.20
2023-07-01T21:11:53.726Z,21.10
2023-07-01T21:14:22.247Z,21.10
2023-07-01T21:16:51.336Z,21.10
2023-07-01T21:19:20.693Z,21.10
2023-07-01T21:21:49.056Z,21.10
2023-07-01T21:24:17.353Z,21.00
2023-07-01T21:26:45.180Z,21.00
2023-07-01T21:29:15.409Z,21.00
2023-07-01T21:31:48.274Z,21.00
2023-07-01T21:34:18.199Z,21.00
2023-07-01T21:36:47.948Z,21.00
2023-07-01T21:39:15.982Z,21.00
2023-07-01T21:41:44.209Z,20.90
2023-07-01T21:44:12.500Z,20.90
2023-07-01T21:46:40.676Z,20.90
2023-07-01T21:49:09.826Z,20.90
2023-07-01T21:51:39.006Z,20.80
2023-07-01T21:54:08.301Z,20.90
2023-07-01T21:56:40.077Z,20.80
2023-07-01T21:59:08.767Z,20.80
2023-07-01T22:01:39.345Z,20.80
2023-07-01T22:04:08.728Z,20.80
2023-07-01T22:06:40.424Z,20.70
2023-07-01T22:09:10.297Z,20.70
2023-07-01T22:11:38.793Z,20.70
2023-07-01T22:14:07.820Z,20.60
2023-07-01T22:16:36.490Z,20.60
2023-07-01T22:19:04.986Z,20.60
2023-07-01T22:21:32.897Z,20.60
2023-07-01T22:24:01.525Z,20.60
2023-07-01T22:26:30.723Z,20.50
2023-07-01T22:28:58.893Z,20.50
2023-07-01T22:31:26.811Z,20.60
2023-07-01T22:33:56.008Z,20.50
2023-07-01T22:36:24.777Z,20.50
2023-07-01T22:38:52.711Z,20.50
2023-07-01T22:41:20.504Z,20.50
2023-07-01T22:43:49.697Z,20.50
2023-07-01T22:46:17.545Z,20.50
2023-07-01T22:48:45.356Z,20.40
2023-07-01T22:51:13.228Z,20.40
2023-07-01T22:53:41.173Z,20.40
2023-07-01T22:56:09.043Z,20.40
2023-07-01T22:58:36.887Z,20.40
2023-07-01T23:01:06.244Z,20.40
2023-07-01T23:03:34.225Z,20.40
2023-07-01T23:06:02.524Z,20.40
2023-07-01T23:08:30.398Z,20.30
2023-07-01T23:10:58.242Z,20.30
2023-07-01T23:13:26.053Z,20.30
2023-07-01T23:15:53.922Z,20.30
2023-07-01T23:18:23.207Z,20.30
2023-07-01T23:20:51.372Z,20.30
2023-07-01T23:23:20.529Z,20.30
2023-07-01T23:25:48.846Z,20.30
2023-07-01T23:28:16.950Z,20.30
2023-07-01T23:30:45.027Z,20.30
2023-07-01T23:33:13.325Z,20.20
2023-07-01T23:35:42.722Z,20.20
2023-07-01T23:38:11.028Z,20.20
2023-07-01T23:40:38.859Z,20.20
2023-07-01T23:43:06.671Z,20.20
2023-07-01T23:45:34.524Z,20.10
2023-07-01T23:48:02.536Z,20.10
2023-07-01T23:50:30.482Z,20.10
2023-07-01T23:52:59.656Z,20.10
2023-07-01T23:55:27.575Z,20.10
2023-07-01T23:57:56.367Z,20.10
